Athens Eleftherios, Greece

8:11 AM EET on February 01, 2015 (GMT +0200)
Agios Nikolaos, Spata-19004, Athens (GR) | Change Station
CLOSE
Current Station
Personal Weather Station
Location: Σπάτα, Αττική
Elevation: 446 ft
Nearby Weather Stations
Active Advisory: Wind

Elev 446 ft 37.98 °N, 23.90 °E | Updated 17 seconds ago

Mostly Cloudy
Mostly Cloudy
61.9 °F
Feels Like 61.9 °F
N
16.0
Wind Variable Wind from SW
Gusts 22.0 mph

Today
High -- | Low -- °F
--% Chance of Precip.
Yesterday
High -- | Low -- °F
Precip. -- in
7:29 AM 5:47 PM
Waxing Gibbous, 93% visible
Pressure 29.30 in
Visibility 5.0 miles
Clouds Few 2500 ft
Mostly Cloudy 18000 ft
Dew Point 52 °F
Humidity 71%
Rainfall 0.00 in
Snow Depth Not available.
UV 1.0 out of 12
Pollen Not available.
Air Quality Not available.
Flu Activity Not available.
METAR LGTG 010450Z 08009KT 8000 FEW025 BKN180 17/08 Q0992 RMK FEW080 BLU

More Conditions Fewer Conditions

Pressure 29.30 in
Visibility 5.0 miles
Clouds Few 2500 ft
Mostly Cloudy 18000 ft
Dew Point 52 °F
Humidity 71%
Rainfall 0.00 in
Snow Depth Not available.
UV 1.0 out of 12
Pollen Not available.
Air Quality Not available.
Flu Activity Not available.
METAR LGTG 010450Z 08009KT 8000 FEW025 BKN180 17/08 Q0992 RMK FEW080 BLU

More Conditions Fewer Conditions

10-Day Weather Forecast

Almanac

Astronomy

Feb. 01, 2015 Rise Set
Actual Time
Civil Twilight
Nautical Twilight
Astronomical Twilight
Moon
Length of Visible Light
Length of Day
Tomorrow will be .
, % of the Moon is Illuminated

Today's Extremes

Country Highs Country Lows

Community

WunderPhotos

Upload Photos

1,792,322 photos uploaded!

WunderBlogs® & News

Nearby

Air Quality

  Air Quality AQ Index Pollutant
Not available.

Snow Depth

Station Depth Elevation

Earthquake Activity

City Distance Mag. Time & Date
Minimum magnitude displayed is 2.5.

Coastal Water Temperatures

Place Temperature

Nearby Weather Stations